sensor_id;sensor_type;location;lat;lon;timestamp;pressure;altitude;pressure_sealevel;temperature;humidity
44351;BME280;62766;62.622;17.912;2023-04-04T00:00:39;102561.83;;;-0.08;53.52
44351;BME280;62766;62.622;17.912;2023-04-04T00:03:08;102559.54;;;-0.16;53.58
44351;BME280;62766;62.622;17.912;2023-04-04T00:05:36;102558.79;;;0.09;53.55
44351;BME280;62766;62.622;17.912;2023-04-04T00:08:05;102555.86;;;-0.06;53.09
44351;BME280;62766;62.622;17.912;2023-04-04T00:10:33;102556.69;;;-0.07;52.75
44351;BME280;62766;62.622;17.912;2023-04-04T00:13:02;102555.72;;;0.03;52.55
44351;BME280;62766;62.622;17.912;2023-04-04T00:15:30;102556.87;;;-0.11;52.19
44351;BME280;62766;62.622;17.912;2023-04-04T00:17:59;102555.11;;;-0.16;52.71
44351;BME280;62766;62.622;17.912;2023-04-04T00:20:27;102553.49;;;-0.18;52.84
44351;BME280;62766;62.622;17.912;2023-04-04T00:22:57;102552.21;;;-0.21;53.05
44351;BME280;62766;62.622;17.912;2023-04-04T00:25:25;102550.41;;;-0.15;52.67
44351;BME280;62766;62.622;17.912;2023-04-04T00:27:53;102548.49;;;-0.34;52.53
44351;BME280;62766;62.622;17.912;2023-04-04T00:30:22;102547.40;;;-0.35;52.57
44351;BME280;62766;62.622;17.912;2023-04-04T00:32:50;102546.21;;;-0.15;53.03
44351;BME280;62766;62.622;17.912;2023-04-04T00:35:19;102541.18;;;-0.21;52.61
44351;BME280;62766;62.622;17.912;2023-04-04T00:37:47;102539.92;;;-0.23;52.51
44351;BME280;62766;62.622;17.912;2023-04-04T00:40:16;102542.25;;;-0.26;52.75
44351;BME280;62766;62.622;17.912;2023-04-04T00:42:44;102541.62;;;-0.21;52.80
44351;BME280;62766;62.622;17.912;2023-04-04T00:45:13;102539.96;;;-0.42;52.86
44351;BME280;62766;62.622;17.912;2023-04-04T00:47:42;102537.83;;;-0.46;53.39
44351;BME280;62766;62.622;17.912;2023-04-04T00:50:10;102536.54;;;-0.41;53.62
44351;BME280;62766;62.622;17.912;2023-04-04T00:52:38;102536.23;;;-0.56;53.80
44351;BME280;62766;62.622;17.912;2023-04-04T00:55:07;102537.60;;;-0.47;53.91
44351;BME280;62766;62.622;17.912;2023-04-04T00:57:35;102534.28;;;-0.41;53.60
44351;BME280;62766;62.622;17.912;2023-04-04T01:00:05;102525.43;;;-0.53;53.23
44351;BME280;62766;62.622;17.912;2023-04-04T01:02:34;102522.79;;;-0.49;53.73
44351;BME280;62766;62.622;17.912;2023-04-04T01:05:11;102524.45;;;-0.54;53.57
44351;BME280;62766;62.622;17.912;2023-04-04T01:07:40;102525.76;;;-0.45;53.62
44351;BME280;62766;62.622;17.912;2023-04-04T01:10:09;102525.07;;;-0.48;53.70
44351;BME280;62766;62.622;17.912;2023-04-04T01:12:40;102524.23;;;-0.42;53.52
44351;BME280;62766;62.622;17.912;2023-04-04T01:15:10;102520.57;;;-0.51;53.48
44351;BME280;62766;62.622;17.912;2023-04-04T01:17:37;102520.36;;;-0.46;53.84
44351;BME280;62766;62.622;17.912;2023-04-04T01:20:10;102518.68;;;-0.40;53.57
44351;BME280;62766;62.622;17.912;2023-04-04T01:22:41;102518.57;;;-0.53;53.33
44351;BME280;62766;62.622;17.912;2023-04-04T01:25:10;102519.51;;;-0.57;53.25
44351;BME280;62766;62.622;17.912;2023-04-04T01:27:38;102518.01;;;-0.56;53.28
44351;BME280;62766;62.622;17.912;2023-04-04T01:30:08;102518.43;;;-0.67;53.45
44351;BME280;62766;62.622;17.912;2023-04-04T01:32:41;102515.54;;;-0.62;53.50
44351;BME280;62766;62.622;17.912;2023-04-04T01:35:20;102515.49;;;-0.72;53.28
44351;BME280;62766;62.622;17.912;2023-04-04T01:37:59;102519.48;;;-0.70;53.08
44351;BME280;62766;62.622;17.912;2023-04-04T01:43:03;102519.06;;;-0.84;53.98
44351;BME280;62766;62.622;17.912;2023-04-04T01:45:31;102516.00;;;-0.90;54.10
44351;BME280;62766;62.622;17.912;2023-04-04T01:48:00;102518.18;;;-0.94;54.15
44351;BME280;62766;62.622;17.912;2023-04-04T01:50:28;102513.44;;;-1.02;54.37
44351;BME280;62766;62.622;17.912;2023-04-04T01:52:57;102509.93;;;-1.33;54.85
44351;BME280;62766;62.622;17.912;2023-04-04T01:55:25;102505.72;;;-1.35;55.28
44351;BME280;62766;62.622;17.912;2023-04-04T01:57:54;102505.75;;;-1.48;55.56
44351;BME280;62766;62.622;17.912;2023-04-04T02:00:24;102502.13;;;-1.38;55.63
44351;BME280;62766;62.622;17.912;2023-04-04T02:02:53;102504.36;;;-1.36;55.29
44351;BME280;62766;62.622;17.912;2023-04-04T02:05:22;102499.90;;;-1.30;54.89
44351;BME280;62766;62.622;17.912;2023-04-04T02:07:52;102498.98;;;-1.33;54.80
44351;BME280;62766;62.622;17.912;2023-04-04T02:10:20;102494.10;;;-1.33;54.89
44351;BME280;62766;62.622;17.912;2023-04-04T02:12:51;102489.91;;;-1.43;55.19
44351;BME280;62766;62.622;17.912;2023-04-04T02:15:19;102486.17;;;-1.35;55.48
44351;BME280;62766;62.622;17.912;2023-04-04T02:17:48;102483.34;;;-1.34;55.47
44351;BME280;62766;62.622;17.912;2023-04-04T02:20:16;102486.06;;;-1.36;55.46
44351;BME280;62766;62.622;17.912;2023-04-04T02:22:53;102488.73;;;-1.51;55.53
44351;BME280;62766;62.622;17.912;2023-04-04T02:25:23;102494.17;;;-1.55;55.71
44351;BME280;62766;62.622;17.912;2023-04-04T02:27:52;102491.10;;;-1.59;56.14
44351;BME280;62766;62.622;17.912;2023-04-04T02:30:21;102491.39;;;-1.70;56.44
44351;BME280;62766;62.622;17.912;2023-04-04T02:32:50;102492.10;;;-1.66;56.55
44351;BME280;62766;62.622;17.912;2023-04-04T02:35:18;102491.44;;;-1.67;56.41
44351;BME280;62766;62.622;17.912;2023-04-04T02:37:46;102489.82;;;-1.53;56.06
44351;BME280;62766;62.622;17.912;2023-04-04T02:40:15;102494.48;;;-1.60;56.02
44351;BME280;62766;62.622;17.912;2023-04-04T02:42:44;102490.89;;;-1.65;56.10
44351;BME280;62766;62.622;17.912;2023-04-04T02:45:12;102489.05;;;-1.58;56.23
44351;BME280;62766;62.622;17.912;2023-04-04T02:47:41;102483.44;;;-1.65;56.41
44351;BME280;62766;62.622;17.912;2023-04-04T02:50:09;102482.44;;;-1.58;56.93
44351;BME280;62766;62.622;17.912;2023-04-04T02:52:38;102481.36;;;-1.53;57.09
44351;BME280;62766;62.622;17.912;2023-04-04T02:55:07;102474.71;;;-1.66;57.10
44351;BME280;62766;62.622;17.912;2023-04-04T02:57:35;102470.45;;;-1.61;57.23
44351;BME280;62766;62.622;17.912;2023-04-04T03:00:05;102465.35;;;-1.66;57.26
44351;BME280;62766;62.622;17.912;2023-04-04T03:02:34;102465.75;;;-1.43;56.85
44351;BME280;62766;62.622;17.912;2023-04-04T03:05:03;102466.40;;;-1.58;56.26
44351;BME280;62766;62.622;17.912;2023-04-04T03:07:31;102465.70;;;-1.61;55.52
44351;BME280;62766;62.622;17.912;2023-04-04T03:10:00;102460.50;;;-1.72;55.58
44351;BME280;62766;62.622;17.912;2023-04-04T03:12:28;102461.51;;;-1.71;55.77
44351;BME280;62766;62.622;17.912;2023-04-04T03:14:57;102458.80;;;-1.75;56.04
44351;BME280;62766;62.622;17.912;2023-04-04T03:17:25;102457.07;;;-1.91;56.70
44351;BME280;62766;62.622;17.912;2023-04-04T03:19:54;102454.80;;;-1.97;56.60
44351;BME280;62766;62.622;17.912;2023-04-04T03:22:23;102454.82;;;-1.83;56.61
44351;BME280;62766;62.622;17.912;2023-04-04T03:24:53;102456.99;;;-1.84;55.85
44351;BME280;62766;62.622;17.912;2023-04-04T03:27:22;102455.98;;;-1.82;55.09
44351;BME280;62766;62.622;17.912;2023-04-04T03:29:50;102456.28;;;-1.82;54.89
44351;BME280;62766;62.622;17.912;2023-04-04T03:32:19;102460.74;;;-1.91;54.87
44351;BME280;62766;62.622;17.912;2023-04-04T03:34:47;102459.33;;;-1.97;54.86
44351;BME280;62766;62.622;17.912;2023-04-04T03:37:16;102456.13;;;-1.92;55.22
44351;BME280;62766;62.622;17.912;2023-04-04T03:39:44;102454.51;;;-1.91;55.01
44351;BME280;62766;62.622;17.912;2023-04-04T03:42:13;102449.58;;;-2.04;54.88
44351;BME280;62766;62.622;17.912;2023-04-04T03:44:41;102448.43;;;-2.02;55.38
44351;BME280;62766;62.622;17.912;2023-04-04T03:47:10;102447.94;;;-1.98;55.67
44351;BME280;62766;62.622;17.912;2023-04-04T03:49:39;102448.98;;;-2.06;56.31
44351;BME280;62766;62.622;17.912;2023-04-04T03:52:07;102453.90;;;-2.12;56.41
44351;BME280;62766;62.622;17.912;2023-04-04T03:54:36;102453.83;;;-2.06;56.22
44351;BME280;62766;62.622;17.912;2023-04-04T03:57:04;102455.40;;;-2.12;56.30
44351;BME280;62766;62.622;17.912;2023-04-04T03:59:33;102455.54;;;-2.20;56.56
44351;BME280;62766;62.622;17.912;2023-04-04T04:03:35;102458.46;;;-2.32;57.00
44351;BME280;62766;62.622;17.912;2023-04-04T04:06:03;102455.18;;;-2.37;57.14
44351;BME280;62766;62.622;17.912;2023-04-04T04:08:32;102455.62;;;-2.52;56.87
44351;BME280;62766;62.622;17.912;2023-04-04T04:11:03;102452.32;;;-2.45;56.52
44351;BME280;62766;62.622;17.912;2023-04-04T04:13:33;102451.13;;;-2.46;57.97
44351;BME280;62766;62.622;17.912;2023-04-04T04:16:01;102450.20;;;-2.77;58.78
44351;BME280;62766;62.622;17.912;2023-04-04T04:18:30;102448.39;;;-2.75;59.05
44351;BME280;62766;62.622;17.912;2023-04-04T04:21:00;102447.34;;;-2.74;59.28
44351;BME280;62766;62.622;17.912;2023-04-04T04:23:29;102448.13;;;-2.62;59.35
44351;BME280;62766;62.622;17.912;2023-04-04T04:25:59;102448.29;;;-2.46;59.12
44351;BME280;62766;62.622;17.912;2023-04-04T04:28:28;102448.68;;;-2.35;59.02
44351;BME280;62766;62.622;17.912;2023-04-04T04:30:56;102445.12;;;-2.33;58.88
44351;BME280;62766;62.622;17.912;2023-04-04T04:33:31;102444.73;;;-2.21;58.70
44351;BME280;62766;62.622;17.912;2023-04-04T04:35:59;102443.81;;;-2.33;58.49
44351;BME280;62766;62.622;17.912;2023-04-04T04:38:27;102444.92;;;-2.36;58.61
44351;BME280;62766;62.622;17.912;2023-04-04T04:40:56;102445.42;;;-2.28;57.62
44351;BME280;62766;62.622;17.912;2023-04-04T04:43:24;102452.10;;;-2.30;57.28
44351;BME280;62766;62.622;17.912;2023-04-04T04:45:52;102452.28;;;-2.14;57.04
44351;BME280;62766;62.622;17.912;2023-04-04T04:48:21;102450.79;;;-1.98;56.65
44351;BME280;62766;62.622;17.912;2023-04-04T04:50:50;102449.01;;;-2.05;56.13
44351;BME280;62766;62.622;17.912;2023-04-04T04:53:18;102450.53;;;-1.94;56.13
44351;BME280;62766;62.622;17.912;2023-04-04T04:55:47;102448.59;;;-1.93;55.96
44351;BME280;62766;62.622;17.912;2023-04-04T04:58:15;102448.37;;;-1.91;55.85
44351;BME280;62766;62.622;17.912;2023-04-04T05:00:44;102450.17;;;-1.84;55.67
44351;BME280;62766;62.622;17.912;2023-04-04T05:03:13;102445.36;;;-1.80;55.57
44351;BME280;62766;62.622;17.912;2023-04-04T05:05:42;102439.46;;;-1.89;55.90
44351;BME280;62766;62.622;17.912;2023-04-04T05:08:11;102441.82;;;-1.90;56.56
44351;BME280;62766;62.622;17.912;2023-04-04T05:10:39;102439.46;;;-1.93;57.38
44351;BME280;62766;62.622;17.912;2023-04-04T05:13:08;102436.34;;;-1.69;57.71
44351;BME280;62766;62.622;17.912;2023-04-04T05:15:37;102440.14;;;-1.58;57.68
44351;BME280;62766;62.622;17.912;2023-04-04T05:18:05;102444.24;;;-1.46;56.65
44351;BME280;62766;62.622;17.912;2023-04-04T05:20:34;102441.56;;;-1.25;55.76
44351;BME280;62766;62.622;17.912;2023-04-04T05:23:03;102439.87;;;-1.08;55.06
44351;BME280;62766;62.622;17.912;2023-04-04T05:25:32;102443.17;;;-0.96;54.88
44351;BME280;62766;62.622;17.912;2023-04-04T05:28:01;102449.17;;;-0.81;54.78
44351;BME280;62766;62.622;17.912;2023-04-04T05:30:31;102448.43;;;-0.77;54.42
44351;BME280;62766;62.622;17.912;2023-04-04T05:32:58;102450.69;;;-0.72;54.11
44351;BME280;62766;62.622;17.912;2023-04-04T05:35:27;102451.95;;;-0.59;53.66
44351;BME280;62766;62.622;17.912;2023-04-04T05:37:56;102452.70;;;-0.36;53.30
44351;BME280;62766;62.622;17.912;2023-04-04T05:40:25;102463.29;;;-0.19;53.01
44351;BME280;62766;62.622;17.912;2023-04-04T05:42:54;102462.75;;;-0.10;52.58
44351;BME280;62766;62.622;17.912;2023-04-04T05:45:22;102461.09;;;0.08;52.36
44351;BME280;62766;62.622;17.912;2023-04-04T05:47:51;102456.92;;;0.19;52.02
44351;BME280;62766;62.622;17.912;2023-04-04T05:50:19;102454.81;;;0.22;51.57
44351;BME280;62766;62.622;17.912;2023-04-04T05:52:48;102456.27;;;0.38;51.32
44351;BME280;62766;62.622;17.912;2023-04-04T05:55:16;102461.64;;;0.52;51.10
44351;BME280;62766;62.622;17.912;2023-04-04T05:57:46;102458.15;;;0.50;50.80
44351;BME280;62766;62.622;17.912;2023-04-04T06:00:17;102457.33;;;0.69;50.71
44351;BME280;62766;62.622;17.912;2023-04-04T06:02:46;102453.73;;;0.75;50.90
44351;BME280;62766;62.622;17.912;2023-04-04T06:05:15;102455.83;;;0.80;50.82
44351;BME280;62766;62.622;17.912;2023-04-04T06:07:43;102454.74;;;0.75;50.76
44351;BME280;62766;62.622;17.912;2023-04-04T06:10:11;102457.74;;;0.94;50.81
44351;BME280;62766;62.622;17.912;2023-04-04T06:12:40;102456.70;;;0.86;50.79
44351;BME280;62766;62.622;17.912;2023-04-04T06:15:09;102461.08;;;0.89;51.09
44351;BME280;62766;62.622;17.912;2023-04-04T06:17:38;102464.25;;;1.05;51.13
44351;BME280;62766;62.622;17.912;2023-04-04T06:20:08;102463.42;;;1.08;51.39
44351;BME280;62766;62.622;17.912;2023-04-04T06:22:37;102459.80;;;1.29;51.11
44351;BME280;62766;62.622;17.912;2023-04-04T06:25:06;102456.96;;;1.58;50.79
44351;BME280;62766;62.622;17.912;2023-04-04T06:27:36;102458.92;;;1.58;50.83
44351;BME280;62766;62.622;17.912;2023-04-04T06:30:05;102452.27;;;1.67;50.70
44351;BME280;62766;62.622;17.912;2023-04-04T06:32:35;102454.56;;;1.83;50.61
44351;BME280;62766;62.622;17.912;2023-04-04T06:35:04;102452.79;;;1.74;50.67
44351;BME280;62766;62.622;17.912;2023-04-04T06:37:31;102455.00;;;1.82;50.72
44351;BME280;62766;62.622;17.912;2023-04-04T06:40:00;102453.33;;;1.73;50.59
44351;BME280;62766;62.622;17.912;2023-04-04T06:42:29;102452.91;;;1.86;50.66
44351;BME280;62766;62.622;17.912;2023-04-04T06:44:59;102451.15;;;1.92;50.61
44351;BME280;62766;62.622;17.912;2023-04-04T06:47:27;102452.41;;;1.87;50.68
44351;BME280;62766;62.622;17.912;2023-04-04T06:49:55;102455.41;;;2.01;50.61
44351;BME280;62766;62.622;17.912;2023-04-04T06:52:24;102457.56;;;2.10;50.59
44351;BME280;62766;62.622;17.912;2023-04-04T06:54:52;102458.62;;;2.28;50.67
44351;BME280;62766;62.622;17.912;2023-04-04T06:57:21;102458.67;;;2.58;50.71
44351;BME280;62766;62.622;17.912;2023-04-04T06:59:50;102462.21;;;2.56;50.38
44351;BME280;62766;62.622;17.912;2023-04-04T07:02:18;102461.91;;;2.58;50.51
44351;BME280;62766;62.622;17.912;2023-04-04T07:04:47;102459.34;;;2.78;50.44
44351;BME280;62766;62.622;17.912;2023-04-04T07:07:16;102454.81;;;3.01;50.40
44351;BME280;62766;62.622;17.912;2023-04-04T07:09:44;102453.55;;;3.01;50.10
44351;BME280;62766;62.622;17.912;2023-04-04T07:12:13;102453.11;;;3.12;49.78
44351;BME280;62766;62.622;17.912;2023-04-04T07:14:42;102451.33;;;3.21;49.67
44351;BME280;62766;62.622;17.912;2023-04-04T07:17:11;102453.05;;;3.35;49.64
44351;BME280;62766;62.622;17.912;2023-04-04T07:19:40;102452.40;;;3.33;49.32
44351;BME280;62766;62.622;17.912;2023-04-04T07:22:09;102453.11;;;3.44;49.43
44351;BME280;62766;62.622;17.912;2023-04-04T07:24:37;102449.08;;;3.52;49.42
44351;BME280;62766;62.622;17.912;2023-04-04T07:27:06;102448.13;;;3.80;49.23
44351;BME280;62766;62.622;17.912;2023-04-04T07:29:35;102445.46;;;3.84;48.94
44351;BME280;62766;62.622;17.912;2023-04-04T07:32:03;102444.35;;;4.06;49.06
44351;BME280;62766;62.622;17.912;2023-04-04T07:34:32;102442.89;;;4.07;48.65
44351;BME280;62766;62.622;17.912;2023-04-04T07:37:01;102445.29;;;4.10;48.35
44351;BME280;62766;62.622;17.912;2023-04-04T07:39:31;102446.01;;;4.10;48.29
44351;BME280;62766;62.622;17.912;2023-04-04T07:41:58;102443.19;;;4.29;48.31
44351;BME280;62766;62.622;17.912;2023-04-04T07:44:27;102437.52;;;4.20;48.33
44351;BME280;62766;62.622;17.912;2023-04-04T07:46:55;102438.63;;;4.50;48.11
44351;BME280;62766;62.622;17.912;2023-04-04T07:49:24;102440.56;;;4.42;47.74
44351;BME280;62766;62.622;17.912;2023-04-04T07:51:52;102442.53;;;4.36;47.60
44351;BME280;62766;62.622;17.912;2023-04-04T07:54:20;102439.93;;;4.55;47.82
44351;BME280;62766;62.622;17.912;2023-04-04T07:56:49;102439.87;;;4.74;47.63
44351;BME280;62766;62.622;17.912;2023-04-04T07:59:17;102437.31;;;4.85;47.27
44351;BME280;62766;62.622;17.912;2023-04-04T08:01:45;102441.08;;;4.85;47.11
44351;BME280;62766;62.622;17.912;2023-04-04T08:04:14;102443.53;;;5.03;46.71
44351;BME280;62766;62.622;17.912;2023-04-04T08:06:42;102448.11;;;5.14;46.58
44351;BME280;62766;62.622;17.912;2023-04-04T08:09:11;102453.25;;;5.23;46.37
44351;BME280;62766;62.622;17.912;2023-04-04T08:11:40;102454.44;;;5.41;46.14
44351;BME280;62766;62.622;17.912;2023-04-04T08:14:08;102460.24;;;5.52;45.85
44351;BME280;62766;62.622;17.912;2023-04-04T08:16:37;102458.52;;;5.54;45.49
44351;BME280;62766;62.622;17.912;2023-04-04T08:19:05;102455.32;;;5.62;45.33
44351;BME280;62766;62.622;17.912;2023-04-04T08:21:34;102452.34;;;5.79;45.16
44351;BME280;62766;62.622;17.912;2023-04-04T08:24:02;102453.20;;;5.91;44.81
44351;BME280;62766;62.622;17.912;2023-04-04T08:26:31;102455.90;;;5.92;44.34
44351;BME280;62766;62.622;17.912;2023-04-04T08:28:59;102455.33;;;6.05;44.23
44351;BME280;62766;62.622;17.912;2023-04-04T08:31:28;102453.00;;;6.10;44.22
44351;BME280;62766;62.622;17.912;2023-04-04T08:33:58;102448.17;;;6.18;43.91
44351;BME280;62766;62.622;17.912;2023-04-04T08:36:26;102449.55;;;6.29;43.78
44351;BME280;62766;62.622;17.912;2023-04-04T08:38:54;102455.42;;;6.36;43.79
44351;BME280;62766;62.622;17.912;2023-04-04T08:41:23;102462.24;;;6.57;43.50
44351;BME280;62766;62.622;17.912;2023-04-04T08:43:52;102461.21;;;6.49;43.43
44351;BME280;62766;62.622;17.912;2023-04-04T08:46:21;102464.56;;;6.54;43.25
44351;BME280;62766;62.622;17.912;2023-04-04T08:48:51;102457.31;;;6.71;42.99
44351;BME280;62766;62.622;17.912;2023-04-04T08:51:21;102456.49;;;6.75;43.06
44351;BME280;62766;62.622;17.912;2023-04-04T08:53:53;102455.77;;;6.67;42.91
44351;BME280;62766;62.622;17.912;2023-04-04T08:56:22;102455.11;;;6.70;43.13
44351;BME280;62766;62.622;17.912;2023-04-04T08:58:50;102456.88;;;6.75;42.96
44351;BME280;62766;62.622;17.912;2023-04-04T09:01:18;102456.97;;;6.68;42.90
44351;BME280;62766;62.622;17.912;2023-04-04T09:03:47;102458.05;;;6.71;43.15
44351;BME280;62766;62.622;17.912;2023-04-04T09:06:17;102461.90;;;6.77;42.92
44351;BME280;62766;62.622;17.912;2023-04-04T09:08:46;102460.98;;;6.80;42.82
44351;BME280;62766;62.622;17.912;2023-04-04T09:11:15;102458.48;;;6.68;43.13
44351;BME280;62766;62.622;17.912;2023-04-04T09:13:48;102452.44;;;6.94;43.14
44351;BME280;62766;62.622;17.912;2023-04-04T09:16:18;102453.06;;;7.01;43.00
44351;BME280;62766;62.622;17.912;2023-04-04T09:18:47;102452.98;;;7.14;42.92
44351;BME280;62766;62.622;17.912;2023-04-04T09:21:18;102453.33;;;7.15;42.62
44351;BME280;62766;62.622;17.912;2023-04-04T09:23:57;102452.56;;;7.17;42.54
44351;BME280;62766;62.622;17.912;2023-04-04T09:26:26;102445.74;;;7.02;42.52
44351;BME280;62766;62.622;17.912;2023-04-04T09:28:55;102449.29;;;7.21;42.28
44351;BME280;62766;62.622;17.912;2023-04-04T09:31:23;102451.40;;;7.20;42.63
44351;BME280;62766;62.622;17.912;2023-04-04T09:33:51;102448.99;;;7.42;42.54
44351;BME280;62766;62.622;17.912;2023-04-04T09:36:20;102447.09;;;7.55;42.02
44351;BME280;62766;62.622;17.912;2023-04-04T09:38:52;102446.67;;;7.56;41.92
44351;BME280;62766;62.622;17.912;2023-04-04T09:41:20;102440.10;;;7.65;41.71
44351;BME280;62766;62.622;17.912;2023-04-04T09:43:48;102437.72;;;7.86;41.54
44351;BME280;62766;62.622;17.912;2023-04-04T09:46:18;102432.23;;;7.80;40.84
44351;BME280;62766;62.622;17.912;2023-04-04T09:48:48;102430.66;;;7.92;40.76
44351;BME280;62766;62.622;17.912;2023-04-04T09:51:17;102426.60;;;7.95;40.38
44351;BME280;62766;62.622;17.912;2023-04-04T09:53:46;102424.78;;;8.04;40.44
44351;BME280;62766;62.622;17.912;2023-04-04T09:56:15;102422.89;;;8.11;40.28
44351;BME280;62766;62.622;17.912;2023-04-04T09:58:45;102420.76;;;8.08;40.40
44351;BME280;62766;62.622;17.912;2023-04-04T10:03:20;102416.54;;;8.13;40.01
44351;BME280;62766;62.622;17.912;2023-04-04T10:05:54;102417.07;;;8.40;39.77
44351;BME280;62766;62.622;17.912;2023-04-04T10:08:23;102416.17;;;8.36;39.44
44351;BME280;62766;62.622;17.912;2023-04-04T10:10:56;102415.28;;;8.60;39.22
44351;BME280;62766;62.622;17.912;2023-04-04T10:13:25;102414.53;;;8.63;38.94
44351;BME280;62766;62.622;17.912;2023-04-04T10:15:56;102417.73;;;8.69;38.92
44351;BME280;62766;62.622;17.912;2023-04-04T10:18:26;102418.00;;;8.80;38.34
44351;BME280;62766;62.622;17.912;2023-04-04T10:20:57;102416.08;;;8.84;38.47
44351;BME280;62766;62.622;17.912;2023-04-04T10:23:26;102417.47;;;8.97;38.45
44351;BME280;62766;62.622;17.912;2023-04-04T10:25:54;102416.68;;;9.18;37.79
44351;BME280;62766;62.622;17.912;2023-04-04T10:28:23;102415.81;;;9.30;37.55
44351;BME280;62766;62.622;17.912;2023-04-04T10:30:59;102419.25;;;9.38;37.78
44351;BME280;62766;62.622;17.912;2023-04-04T10:33:34;102416.03;;;9.38;37.14
44351;BME280;62766;62.622;17.912;2023-04-04T10:36:08;102416.76;;;9.32;37.02
44351;BME280;62766;62.622;17.912;2023-04-04T10:38:40;102409.16;;;9.47;36.80
44351;BME280;62766;62.622;17.912;2023-04-04T10:41:10;102408.53;;;9.57;36.85
44351;BME280;62766;62.622;17.912;2023-04-04T10:43:44;102406.07;;;9.69;36.22
44351;BME280;62766;62.622;17.912;2023-04-04T10:46:16;102411.15;;;9.71;36.06
44351;BME280;62766;62.622;17.912;2023-04-04T10:48:46;102409.46;;;9.69;36.13
44351;BME280;62766;62.622;17.912;2023-04-04T10:51:15;102402.95;;;9.91;36.05
44351;BME280;62766;62.622;17.912;2023-04-04T10:53:45;102405.10;;;10.09;36.08
44351;BME280;62766;62.622;17.912;2023-04-04T10:56:13;102402.49;;;10.20;35.61
44351;BME280;62766;62.622;17.912;2023-04-04T10:58:44;102402.94;;;10.47;35.38
44351;BME280;62766;62.622;17.912;2023-04-04T11:01:12;102404.50;;;10.33;35.14
44351;BME280;62766;62.622;17.912;2023-04-04T11:04:46;102403.50;;;10.52;34.85
44351;BME280;62766;62.622;17.912;2023-04-04T11:07:15;102399.75;;;10.72;34.58
44351;BME280;62766;62.622;17.912;2023-04-04T11:09:48;102399.63;;;10.81;34.33
44351;BME280;62766;62.622;17.912;2023-04-04T11:12:26;102400.99;;;10.92;34.68
44351;BME280;62766;62.622;17.912;2023-04-04T11:14:56;102401.55;;;11.03;34.42
44351;BME280;62766;62.622;17.912;2023-04-04T11:17:42;102399.88;;;11.07;33.99
44351;BME280;62766;62.622;17.912;2023-04-04T11:20:15;102398.41;;;11.09;33.76
44351;BME280;62766;62.622;17.912;2023-04-04T11:22:44;102396.49;;;11.39;33.91
44351;BME280;62766;62.622;17.912;2023-04-04T11:25:30;102396.44;;;11.33;33.52
44351;BME280;62766;62.622;17.912;2023-04-04T11:28:05;102397.49;;;11.41;33.10
44351;BME280;62766;62.622;17.912;2023-04-04T11:30:38;102396.94;;;11.52;33.65
44351;BME280;62766;62.622;17.912;2023-04-04T11:33:06;102397.62;;;11.47;33.83
44351;BME280;62766;62.622;17.912;2023-04-04T11:35:37;102398.55;;;11.46;34.21
44351;BME280;62766;62.622;17.912;2023-04-04T11:38:12;102399.48;;;11.41;33.89
44351;BME280;62766;62.622;17.912;2023-04-04T11:40:51;102398.69;;;11.27;34.04
44351;BME280;62766;62.622;17.912;2023-04-04T11:43:20;102396.90;;;11.15;34.18
44351;BME280;62766;62.622;17.912;2023-04-04T11:45:49;102391.02;;;11.08;34.17
44351;BME280;62766;62.622;17.912;2023-04-04T11:48:19;102388.83;;;11.05;33.99
44351;BME280;62766;62.622;17.912;2023-04-04T11:50:47;102385.84;;;10.90;34.00
44351;BME280;62766;62.622;17.912;2023-04-04T11:53:16;102387.53;;;10.81;34.14
44351;BME280;62766;62.622;17.912;2023-04-04T11:55:47;102383.60;;;10.56;34.40
44351;BME280;62766;62.622;17.912;2023-04-04T11:58:16;102383.10;;;10.58;34.98
44351;BME280;62766;62.622;17.912;2023-04-04T12:00:46;102383.46;;;10.57;34.77
44351;BME280;62766;62.622;17.912;2023-04-04T12:03:15;102382.86;;;10.56;34.81
44351;BME280;62766;62.622;17.912;2023-04-04T12:05:45;102378.40;;;10.52;34.85
44351;BME280;62766;62.622;17.912;2023-04-04T12:08:14;102384.64;;;10.72;34.82
44351;BME280;62766;62.622;17.912;2023-04-04T12:10:42;102384.00;;;10.53;34.38
44351;BME280;62766;62.622;17.912;2023-04-04T12:13:12;102381.69;;;10.34;34.83
44351;BME280;62766;62.622;17.912;2023-04-04T12:15:41;102381.98;;;10.65;35.42
44351;BME280;62766;62.622;17.912;2023-04-04T12:18:19;102378.56;;;10.68;35.56
44351;BME280;62766;62.622;17.912;2023-04-04T12:20:49;102376.48;;;10.69;35.92
44351;BME280;62766;62.622;17.912;2023-04-04T12:23:18;102371.05;;;10.81;35.47
44351;BME280;62766;62.622;17.912;2023-04-04T12:25:46;102375.58;;;10.91;35.24
44351;BME280;62766;62.622;17.912;2023-04-04T12:28:14;102377.71;;;10.95;35.36
44351;BME280;62766;62.622;17.912;2023-04-04T12:30:42;102375.12;;;11.05;35.12
44351;BME280;62766;62.622;17.912;2023-04-04T12:33:11;102370.87;;;11.17;34.88
44351;BME280;62766;62.622;17.912;2023-04-04T12:35:39;102365.98;;;11.14;34.15
44351;BME280;62766;62.622;17.912;2023-04-04T12:38:15;102361.50;;;10.95;33.99
44351;BME280;62766;62.622;17.912;2023-04-04T12:40:45;102355.84;;;11.01;33.91
44351;BME280;62766;62.622;17.912;2023-04-04T12:43:16;102355.70;;;11.11;33.47
44351;BME280;62766;62.622;17.912;2023-04-04T12:45:44;102354.99;;;11.10;33.63
44351;BME280;62766;62.622;17.912;2023-04-04T12:48:14;102347.80;;;11.01;33.54
44351;BME280;62766;62.622;17.912;2023-04-04T12:50:51;102348.76;;;11.19;33.54
44351;BME280;62766;62.622;17.912;2023-04-04T12:53:21;102348.57;;;11.49;33.11
44351;BME280;62766;62.622;17.912;2023-04-04T12:55:50;102349.84;;;11.52;33.04
44351;BME280;62766;62.622;17.912;2023-04-04T12:58:21;102351.29;;;11.43;33.07
44351;BME280;62766;62.622;17.912;2023-04-04T13:00:52;102351.76;;;11.37;32.91